Time;durP1;ratioP1;P1;durP2;ratioP2;P2;SDS_P1;SDS_P2;PMS_P1;PMS_P2;Temp;Humidity;BMP_temperature;BMP_pressure;BME280_temperature;BME280_humidity;BME280_pressure;Samples;Min_cycle;Max_cycle;Signal;HPM_P1;HPM_P2
2022/10/06 00:02:20;;;;;;;5.72;1.00;;;12.70;99.90;;;;;;4979279;28;20104;-70
2022/10/06 00:04:46;;;;;;;6.05;0.70;;;12.70;99.90;;;;;;4977521;28;20085;-70
2022/10/06 00:07:12;;;;;;;7.43;0.77;;;12.70;99.90;;;;;;4979135;28;20038;-70
2022/10/06 00:09:38;;;;;;;7.75;0.85;;;12.70;99.90;;;;;;4977834;28;20062;-70
2022/10/06 00:12:04;;;;;;;4.55;0.60;;;12.70;99.90;;;;;;4977847;28;20121;-70
2022/10/06 00:14:30;;;;;;;4.28;1.13;;;12.70;99.90;;;;;;4983313;28;20402;-70
2022/10/06 00:16:55;;;;;;;8.25;1.27;;;12.70;99.90;;;;;;4981217;28;20042;-70
2022/10/06 00:19:21;;;;;;;4.45;0.77;;;12.70;99.90;;;;;;4982838;28;20136;-69
2022/10/06 00:21:46;;;;;;;12.35;1.85;;;12.70;99.90;;;;;;4983977;28;20049;-69
2022/10/06 00:24:12;;;;;;;9.57;0.80;;;12.70;99.90;;;;;;4981356;28;20039;-70
2022/10/06 00:26:38;;;;;;;4.40;0.70;;;12.60;99.90;;;;;;4986191;28;20120;-70
2022/10/06 00:29:03;;;;;;;8.25;0.73;;;12.60;99.90;;;;;;4979396;28;20039;-70
2022/10/06 00:31:29;;;;;;;9.98;0.82;;;12.60;99.90;;;;;;4983048;28;20129;-69
2022/10/06 00:33:54;;;;;;;10.48;0.70;;;12.60;99.90;;;;;;4979725;28;20154;-70
2022/10/06 00:36:21;;;;;;;5.57;1.13;;;12.50;99.90;;;;;;4980518;28;20513;-70
2022/10/06 00:38:46;;;;;;;7.80;0.82;;;12.50;99.90;;;;;;4984400;28;20045;-70
2022/10/06 00:41:14;;;;;;;7.65;0.77;;;12.50;99.90;;;;;;4985594;28;20141;-70
2022/10/06 00:43:44;;;;;;;7.93;1.00;;;12.50;99.90;;;;;;4988160;28;20023;-70
2022/10/06 00:46:15;;;;;;;4.60;0.75;;;12.50;99.90;;;;;;4984303;28;20031;-70
2022/10/06 00:48:43;;;;;;;7.53;1.38;;;12.40;99.90;;;;;;4982419;28;20049;-70
2022/10/06 00:51:09;;;;;;;7.68;1.25;;;12.40;99.90;;;;;;4980492;28;20071;-70
2022/10/06 00:53:35;;;;;;;4.88;0.60;;;12.40;99.90;;;;;;4984376;28;20031;-71
2022/10/06 00:56:00;;;;;;;4.55;0.30;;;12.30;99.90;;;;;;4983658;28;20104;-70
2022/10/06 00:58:26;;;;;;;12.38;1.00;;;12.30;99.90;;;;;;4981356;28;20415;-70
2022/10/06 01:00:53;;;;;;;5.50;0.50;;;12.30;99.90;;;;;;4982874;28;20058;-70
2022/10/06 01:03:40;;;;;;;5.00;1.38;;;12.20;99.90;;;;;;4981781;28;20042;-70
2022/10/06 01:06:06;;;;;;;10.30;0.82;;;12.20;99.90;;;;;;4982240;28;20042;-70
2022/10/06 01:08:32;;;;;;;4.25;0.70;;;12.10;99.90;;;;;;4979394;28;20093;-70
2022/10/06 01:10:58;;;;;;;4.18;0.60;;;12.10;99.90;;;;;;4983296;28;20038;-70
2022/10/06 01:13:25;;;;;;;5.90;0.70;;;12.10;99.90;;;;;;4982006;28;20026;-70
2022/10/06 01:15:56;;;;;;;3.63;0.77;;;12.10;99.90;;;;;;4981428;28;20034;-70
2022/10/06 01:18:25;;;;;;;6.25;0.60;;;12.10;99.90;;;;;;4981071;28;20250;-70
2022/10/06 01:21:05;;;;;;;4.18;0.68;;;12.00;99.90;;;;;;4981429;28;20493;-70
2022/10/06 01:23:33;;;;;;;10.52;1.05;;;12.00;99.90;;;;;;4974960;28;20808;-70
2022/10/06 01:26:03;;;;;;;6.53;0.60;;;12.00;99.90;;;;;;4981992;28;20072;-71
2022/10/06 01:28:29;;;;;;;8.43;0.90;;;12.00;99.90;;;;;;4983346;28;20030;-71
2022/10/06 01:30:56;;;;;;;6.03;1.00;;;11.90;99.90;;;;;;4978774;28;20372;-70
2022/10/06 01:33:22;;;;;;;4.63;0.68;;;11.90;99.90;;;;;;4980660;28;20034;-70
2022/10/06 01:35:50;;;;;;;11.40;1.17;;;11.90;99.90;;;;;;4981382;28;20027;-70
2022/10/06 01:38:17;;;;;;;5.20;0.50;;;11.80;99.90;;;;;;4979607;28;20403;-70
2022/10/06 01:40:43;;;;;;;4.43;0.38;;;11.80;99.90;;;;;;4982311;28;20030;-70
2022/10/06 01:43:09;;;;;;;3.15;1.08;;;11.80;99.90;;;;;;4978982;28;20038;-70
2022/10/06 01:45:35;;;;;;;7.35;0.68;;;11.70;99.90;;;;;;4982030;28;20038;-69
2022/10/06 01:48:00;;;;;;;2.83;0.57;;;11.70;99.90;;;;;;4982921;28;20121;-70
2022/10/06 01:50:26;;;;;;;13.77;1.48;;;11.60;99.90;;;;;;4979706;28;20054;-70
2022/10/06 01:52:51;;;;;;;4.55;1.02;;;11.60;99.90;;;;;;4982392;28;20046;-71
2022/10/06 01:55:18;;;;;;;4.25;0.68;;;11.60;99.90;;;;;;4980965;28;20039;-70
2022/10/06 01:57:44;;;;;;;4.40;0.57;;;11.60;99.90;;;;;;4979706;28;20102;-70
2022/10/06 02:00:10;;;;;;;4.07;0.80;;;11.60;99.90;;;;;;4978952;28;20122;-70
2022/10/06 02:02:36;;;;;;;7.88;0.68;;;11.50;99.90;;;;;;4982337;28;20034;-70
2022/10/06 02:05:02;;;;;;;32.97;1.90;;;11.50;99.90;;;;;;4979218;28;20035;-70
2022/10/06 02:07:28;;;;;;;4.95;0.82;;;11.50;99.90;;;;;;4983663;28;20031;-70
2022/10/06 02:09:53;;;;;;;5.43;1.35;;;11.50;99.90;;;;;;4979669;28;20092;-70
2022/10/06 02:12:19;;;;;;;3.22;0.65;;;11.50;99.90;;;;;;4981233;28;20046;-70
2022/10/06 02:14:44;;;;;;;6.13;0.70;;;11.50;99.90;;;;;;4980860;28;20055;-70
2022/10/06 02:17:10;;;;;;;5.80;0.50;;;11.40;99.90;;;;;;4979066;28;20096;-70
2022/10/06 02:19:36;;;;;;;7.38;0.55;;;11.40;99.90;;;;;;4980780;28;20063;-70
2022/10/06 02:22:02;;;;;;;6.93;1.13;;;11.30;99.90;;;;;;4979166;28;20540;-70
2022/10/06 02:24:29;;;;;;;4.63;0.40;;;11.30;99.90;;;;;;4982619;28;20038;-70
2022/10/06 02:26:54;;;;;;;6.95;1.25;;;11.30;99.90;;;;;;4978180;28;20027;-69
2022/10/06 02:29:20;;;;;;;4.05;0.45;;;11.20;99.90;;;;;;4981714;28;20041;-70
2022/10/06 02:31:46;;;;;;;5.07;0.50;;;11.20;99.90;;;;;;4979154;28;20042;-70
2022/10/06 02:34:11;;;;;;;8.30;0.93;;;11.20;99.90;;;;;;4978729;28;20043;-69
2022/10/06 02:36:37;;;;;;;8.18;1.00;;;11.10;99.90;;;;;;4980382;28;20092;-69
2022/10/06 02:39:03;;;;;;;10.70;0.82;;;11.10;99.90;;;;;;4979077;28;20046;-70
2022/10/06 02:41:29;;;;;;;7.97;0.80;;;11.10;99.90;;;;;;4982620;28;20297;-69
2022/10/06 02:43:55;;;;;;;6.28;0.70;;;11.10;99.90;;;;;;4975232;28;20034;-70
2022/10/06 02:46:21;;;;;;;7.00;0.77;;;11.10;99.90;;;;;;4981607;28;20136;-70
2022/10/06 02:48:46;;;;;;;4.60;0.60;;;11.10;99.90;;;;;;4979792;28;20509;-69
2022/10/06 02:51:15;;;;;;;6.50;0.80;;;11.00;99.90;;;;;;4980022;28;20042;-69
2022/10/06 02:53:43;;;;;;;9.48;1.45;;;11.00;99.90;;;;;;4980400;28;20804;-69
2022/10/06 02:56:22;;;;;;;2.88;0.47;;;11.00;99.90;;;;;;4980300;28;20049;-70
2022/10/06 02:58:50;;;;;;;9.95;1.35;;;11.00;99.90;;;;;;4980110;28;20041;-70
2022/10/06 03:01:33;;;;;;;5.00;0.50;;;11.00;99.90;;;;;;4978282;28;20549;-70
2022/10/06 03:03:59;;;;;;;3.60;0.40;;;11.00;99.90;;;;;;4980162;28;20393;-69
2022/10/06 03:06:30;;;;;;;3.67;0.80;;;11.00;99.90;;;;;;4977192;28;20035;-69
2022/10/06 03:09:04;;;;;;;8.98;0.93;;;11.00;99.90;;;;;;4982048;28;20042;-70
2022/10/06 03:11:33;;;;;;;7.75;1.45;;;11.00;99.90;;;;;;4974424;28;20090;-70
2022/10/06 03:13:59;;;;;;;3.88;0.57;;;11.00;99.90;;;;;;4981501;28;20030;-70
2022/10/06 03:16:26;;;;;;;6.60;1.05;;;11.00;99.90;;;;;;4981360;28;20034;-70
2022/10/06 03:18:54;;;;;;;9.05;1.65;;;11.00;99.90;;;;;;4977005;28;20045;-70
2022/10/06 03:21:22;;;;;;;7.10;1.10;;;11.00;99.90;;;;;;4981080;28;20070;-70
2022/10/06 03:23:50;;;;;;;4.45;1.00;;;11.00;99.90;;;;;;4976204;28;20049;-69
2022/10/06 03:26:20;;;;;;;11.10;0.75;;;10.90;99.90;;;;;;4981394;28;20041;-69
2022/10/06 03:28:46;;;;;;;5.60;0.88;;;11.00;99.90;;;;;;4979308;28;20030;-69
2022/10/06 03:31:12;;;;;;;4.25;0.55;;;11.00;99.90;;;;;;4978750;28;20038;-70
2022/10/06 03:33:37;;;;;;;7.18;0.70;;;11.00;99.90;;;;;;4977787;28;20038;-70
2022/10/06 03:36:15;;;;;;;8.52;1.02;;;11.00;99.90;;;;;;4980216;28;20038;-70
2022/10/06 03:38:41;;;;;;;8.93;2.03;;;11.00;99.90;;;;;;4978150;28;20497;-70
2022/10/06 03:41:21;;;;;;;9.32;0.50;;;11.00;99.90;;;;;;4977775;28;20126;-70
2022/10/06 03:43:48;;;;;;;5.60;0.60;;;11.10;99.90;;;;;;4978253;28;20047;-70
2022/10/06 03:46:17;;;;;;;9.57;0.70;;;11.00;99.90;;;;;;4978294;28;20100;-69
2022/10/06 03:48:43;;;;;;;5.13;0.80;;;11.00;99.90;;;;;;4979136;28;20578;-69
2022/10/06 03:51:21;;;;;;;5.30;0.65;;;11.10;99.90;;;;;;4979365;28;20105;-70
2022/10/06 03:53:50;;;;;;;6.30;1.52;;;11.10;99.90;;;;;;4978441;28;20038;-70
2022/10/06 03:56:15;;;;;;;5.60;0.88;;;11.10;99.90;;;;;;4979044;28;20098;-70
2022/10/06 03:58:44;;;;;;;5.75;1.58;;;11.10;99.90;;;;;;4978119;28;20062;-70
2022/10/06 04:01:25;;;;;;;5.85;1.02;;;11.10;99.90;;;;;;4979473;28;20551;-71
2022/10/06 04:03:51;;;;;;;7.05;0.95;;;11.10;99.90;;;;;;4974205;28;20035;-70
2022/10/06 04:06:18;;;;;;;7.80;0.70;;;11.10;99.90;;;;;;4980858;28;20117;-70
2022/10/06 04:08:45;;;;;;;7.45;1.00;;;11.10;99.90;;;;;;4960531;28;20495;-70
2022/10/06 04:11:12;;;;;;;12.23;1.10;;;11.10;99.90;;;;;;4978415;28;20096;-70
2022/10/06 04:13:39;;;;;;;7.70;1.27;;;11.10;99.90;;;;;;4979778;28;20031;-70
2022/10/06 04:16:12;;;;;;;13.38;1.20;;;11.00;99.90;;;;;;4979617;28;20113;-70
2022/10/06 04:18:37;;;;;;;6.20;1.23;;;11.00;99.90;;;;;;4979639;28;20041;-70
2022/10/06 04:21:04;;;;;;;6.53;0.80;;;11.00;99.90;;;;;;4978583;28;20118;-69
2022/10/06 04:23:29;;;;;;;18.88;1.60;;;10.90;99.90;;;;;;4976817;28;20030;-70
2022/10/06 04:25:59;;;;;;;5.13;0.60;;;10.90;99.90;;;;;;4983539;28;20030;-70
2022/10/06 04:28:25;;;;;;;3.70;0.60;;;10.90;99.90;;;;;;4977474;28;20403;-70
2022/10/06 04:30:58;;;;;;;5.90;0.52;;;10.80;99.90;;;;;;4981453;28;20286;-69
2022/10/06 04:33:24;;;;;;;10.18;0.75;;;10.70;99.90;;;;;;4973579;28;20031;-69
2022/10/06 04:35:58;;;;;;;7.63;0.80;;;10.70;99.90;;;;;;4979965;28;20118;-69
2022/10/06 04:38:24;;;;;;;3.15;0.50;;;10.60;99.90;;;;;;4974814;28;20126;-70
2022/10/06 04:40:50;;;;;;;6.70;0.80;;;10.60;99.90;;;;;;4980473;28;20573;-69
2022/10/06 04:43:16;;;;;;;11.48;0.90;;;10.60;99.90;;;;;;4977998;28;20039;-70
2022/10/06 04:45:41;;;;;;;3.72;0.60;;;10.50;99.90;;;;;;4980530;28;20061;-69
2022/10/06 04:48:07;;;;;;;9.80;1.10;;;10.50;99.90;;;;;;4981286;28;20038;-70
2022/10/06 04:50:32;;;;;;;18.08;2.40;;;10.60;99.90;;;;;;4979769;28;20057;-70
2022/10/06 04:52:58;;;;;;;4.88;1.25;;;10.60;99.90;;;;;;4978553;28;20031;-71
2022/10/06 04:55:23;;;;;;;3.47;0.65;;;10.50;99.90;;;;;;4981021;28;20034;-70
2022/10/06 04:57:49;;;;;;;9.05;1.13;;;10.50;99.90;;;;;;4978094;28;20027;-69
2022/10/06 05:00:24;;;;;;;6.88;0.88;;;10.50;99.90;;;;;;4981988;28;20093;-70
2022/10/06 05:02:54;;;;;;;5.85;0.80;;;10.50;99.90;;;;;;4990604;28;20065;-70
2022/10/06 05:05:20;;;;;;;9.02;0.73;;;10.40;99.90;;;;;;4986356;28;20113;-70
2022/10/06 05:07:46;;;;;;;8.45;1.17;;;10.40;99.90;;;;;;4987950;28;20129;-69
2022/10/06 05:10:11;;;;;;;5.50;0.82;;;10.40;99.90;;;;;;4989300;28;20027;-70
2022/10/06 05:12:37;;;;;;;10.85;1.23;;;10.30;99.90;;;;;;4989726;28;20046;-70
2022/10/06 05:15:03;;;;;;;4.55;0.50;;;10.30;99.90;;;;;;4990636;28;20038;-69
2022/10/06 05:17:29;;;;;;;6.28;0.70;;;10.30;99.90;;;;;;4987192;28;20185;-68
2022/10/06 05:19:54;;;;;;;6.70;1.17;;;10.20;99.90;;;;;;4983010;28;20137;-70
2022/10/06 05:22:20;;;;;;;6.57;0.90;;;10.20;99.90;;;;;;4984922;28;20045;-70
2022/10/06 05:24:45;;;;;;;5.72;0.73;;;10.20;99.90;;;;;;4965360;28;20089;-71
2022/10/06 05:27:12;;;;;;;6.25;1.63;;;10.20;99.90;;;;;;4984885;28;20030;-71
2022/10/06 05:29:38;;;;;;;2.67;0.40;;;10.20;99.90;;;;;;4973559;28;21280;-70
2022/10/06 05:32:03;;;;;;;7.50;0.63;;;10.10;99.90;;;;;;4975936;28;20047;-69
2022/10/06 05:34:29;;;;;;;8.85;0.77;;;10.10;99.90;;;;;;4972821;28;20170;-69
2022/10/06 05:36:54;;;;;;;3.95;0.68;;;10.10;99.90;;;;;;4977249;28;20027;-69
2022/10/06 05:39:20;;;;;;;5.47;1.20;;;10.10;99.90;;;;;;4973880;28;20185;-68
2022/10/06 05:41:46;;;;;;;9.93;0.90;;;10.10;99.90;;;;;;4975050;28;20109;-69
2022/10/06 05:44:12;;;;;;;13.48;1.27;;;10.10;99.90;;;;;;4972434;28;20051;-70
2022/10/06 05:46:37;;;;;;;8.90;1.15;;;10.10;99.90;;;;;;4974973;28;20034;-70
2022/10/06 05:49:09;;;;;;;13.60;0.90;;;10.10;99.90;;;;;;4975781;28;20493;-70
2022/10/06 05:51:36;;;;;;;14.05;1.27;;;10.10;99.90;;;;;;4977492;28;20034;-68
2022/10/06 05:54:02;;;;;;;7.40;0.90;;;10.20;99.90;;;;;;4980496;28;20039;-69
2022/10/06 05:56:31;;;;;;;8.73;0.57;;;10.20;99.90;;;;;;4972695;28;20034;-68
2022/10/06 05:58:58;;;;;;;7.95;0.70;;;10.20;99.90;;;;;;4973548;28;20062;-69
2022/10/06 06:01:29;;;;;;;9.55;0.95;;;10.20;99.90;;;;;;4977505;28;20065;-68
2022/10/06 06:04:01;;;;;;;12.35;1.58;;;10.20;99.90;;;;;;4977488;28;20093;-69
2022/10/06 06:06:34;;;;;;;9.07;1.45;;;10.20;99.90;;;;;;4974237;28;20037;-69
2022/10/06 06:09:01;;;;;;;5.53;1.23;;;10.20;99.90;;;;;;4976366;28;20039;-70
2022/10/06 06:11:30;;;;;;;8.27;1.25;;;10.30;99.90;;;;;;4976727;28;20062;-69
2022/10/06 06:14:06;;;;;;;8.90;1.27;;;10.30;99.90;;;;;;4974589;28;20034;-69
2022/10/06 06:16:33;;;;;;;10.00;1.02;;;10.30;99.90;;;;;;4974423;28;20034;-69
2022/10/06 06:18:59;;;;;;;7.25;0.68;;;10.30;99.90;;;;;;4978831;28;20046;-71
2022/10/06 06:21:26;;;;;;;9.05;1.25;;;10.30;99.90;;;;;;4979044;28;20038;-69
2022/10/06 06:23:52;;;;;;;10.65;1.17;;;10.40;99.90;;;;;;4971945;28;20252;-69
2022/10/06 06:26:22;;;;;;;9.98;0.90;;;10.40;99.90;;;;;;4978756;28;20042;-70
2022/10/06 06:28:49;;;;;;;2.70;0.73;;;10.40;99.90;;;;;;4973841;28;20061;-69
2022/10/06 06:31:25;;;;;;;13.60;1.90;;;10.40;99.90;;;;;;4975739;28;20032;-69
2022/10/06 06:33:52;;;;;;;7.15;0.95;;;10.50;99.90;;;;;;4972501;28;20042;-70
2022/10/06 06:36:27;;;;;;;4.93;0.77;;;10.50;99.90;;;;;;4977410;28;20038;-70
2022/10/06 06:38:55;;;;;;;13.07;1.80;;;10.50;99.90;;;;;;4971031;28;20057;-69
2022/10/06 06:41:22;;;;;;;5.43;0.70;;;10.50;99.90;;;;;;4970762;28;20037;-69
2022/10/06 06:43:49;;;;;;;7.13;0.80;;;10.50;99.90;;;;;;4976130;28;20034;-70
2022/10/06 06:46:16;;;;;;;6.13;1.00;;;10.50;99.90;;;;;;4977203;28;20088;-69
2022/10/06 06:48:42;;;;;;;8.73;1.15;;;10.50;99.90;;;;;;4977002;28;20038;-70
2022/10/06 06:51:11;;;;;;;8.80;0.90;;;10.60;99.90;;;;;;4976788;28;20038;-70
2022/10/06 06:53:38;;;;;;;4.72;0.57;;;10.60;99.90;;;;;;4974411;28;20057;-69
2022/10/06 06:56:05;;;;;;;8.43;1.58;;;10.70;99.90;;;;;;4972218;28;20038;-70
2022/10/06 06:58:31;;;;;;;12.80;1.27;;;10.70;99.90;;;;;;4974725;28;20041;-70
2022/10/06 07:01:06;;;;;;;7.25;0.80;;;10.80;99.90;;;;;;4976965;28;20118;-69
2022/10/06 07:03:32;;;;;;;12.38;1.85;;;10.80;99.90;;;;;;4977453;28;20042;-69
2022/10/06 07:06:27;;;;;;;7.47;1.00;;;10.90;99.90;;;;;;4973301;28;20147;-69
2022/10/06 07:08:54;;;;;;;5.50;1.33;;;11.00;99.90;;;;;;4972748;28;20053;-69
2022/10/06 07:11:21;;;;;;;5.45;0.85;;;11.00;99.90;;;;;;4974834;28;20065;-69
2022/10/06 07:13:52;;;;;;;7.25;1.00;;;11.10;99.90;;;;;;4973282;28;20034;-70
2022/10/06 07:27:20;;;;;;;11.38;1.05;;;11.50;99.90;;;;;;4973775;28;20046;-70
2022/10/06 07:29:46;;;;;;;10.13;1.38;;;11.60;99.90;;;;;;4976701;28;20034;-70
2022/10/06 07:32:12;;;;;;;7.55;0.88;;;11.70;99.90;;;;;;4975924;28;20709;-70
2022/10/06 07:34:39;;;;;;;12.98;1.48;;;11.80;99.90;;;;;;4974526;28;20089;-69
2022/10/06 07:37:04;;;;;;;7.72;1.33;;;11.90;99.90;;;;;;4973913;28;20034;-70
2022/10/06 07:39:30;;;;;;;7.75;1.27;;;12.00;99.90;;;;;;4976623;28;20050;-70
2022/10/06 07:41:56;;;;;;;4.50;0.98;;;12.10;99.90;;;;;;4974536;28;20639;-70
2022/10/06 07:44:22;;;;;;;7.50;0.77;;;12.20;99.90;;;;;;4974057;28;20042;-70
2022/10/06 07:46:47;;;;;;;7.60;0.90;;;12.20;99.90;;;;;;4977285;28;20118;-70
2022/10/06 07:49:16;;;;;;;8.35;1.05;;;12.30;99.90;;;;;;4974452;28;20046;-70
2022/10/06 07:51:42;;;;;;;7.53;0.73;;;12.40;99.90;;;;;;4969675;28;20077;-68
2022/10/06 07:54:08;;;;;;;1.65;0.40;;;12.50;99.90;;;;;;4976316;28;20053;-69
2022/10/06 07:56:33;;;;;;;5.25;0.70;;;12.60;99.90;;;;;;4974577;28;20558;-70
2022/10/06 07:58:59;;;;;;;7.25;0.80;;;12.70;99.90;;;;;;4976805;28;20045;-70
2022/10/06 08:01:29;;;;;;;5.07;0.70;;;12.80;99.90;;;;;;4971786;28;20057;-70
2022/10/06 08:03:54;;;;;;;5.88;0.93;;;12.90;99.90;;;;;;4978249;28;20042;-70
2022/10/06 08:06:22;;;;;;;10.80;1.52;;;13.00;99.90;;;;;;4975357;28;20038;-68
2022/10/06 08:08:48;;;;;;;8.77;1.42;;;13.10;99.90;;;;;;4974263;28;20119;-70
2022/10/06 08:11:14;;;;;;;3.92;0.60;;;13.20;99.90;;;;;;4975350;28;20126;-70
2022/10/06 08:13:42;;;;;;;8.50;1.27;;;13.20;99.90;;;;;;4976264;28;20387;-69
2022/10/06 08:16:11;;;;;;;6.93;1.02;;;13.30;99.90;;;;;;4973643;28;20043;-69
2022/10/06 08:18:37;;;;;;;10.02;1.10;;;13.40;99.90;;;;;;4974959;28;20060;-71
2022/10/06 08:21:14;;;;;;;6.45;1.27;;;13.50;99.90;;;;;;4974550;28;20038;-70
2022/10/06 08:23:42;;;;;;;10.35;1.38;;;13.50;99.90;;;;;;4972828;28;20061;-72
2022/10/06 08:26:09;;;;;;;6.15;1.35;;;13.60;99.90;;;;;;4973810;28;20031;-71
2022/10/06 08:28:35;;;;;;;6.78;0.80;;;13.80;99.90;;;;;;4968807;28;20121;-70
2022/10/06 08:31:10;;;;;;;7.05;0.88;;;13.80;99.90;;;;;;4970435;28;20465;-70
2022/10/06 08:33:37;;;;;;;12.32;1.70;;;13.80;99.90;;;;;;4973417;28;20089;-72
2022/10/06 08:36:15;;;;;;;6.03;0.90;;;13.90;99.90;;;;;;4976378;28;20109;-71
2022/10/06 08:38:41;;;;;;;6.65;1.35;;;14.00;99.90;;;;;;4980251;28;20042;-69
2022/10/06 08:41:33;;;;;;;6.88;0.90;;;14.00;99.90;;;;;;4975538;28;20487;-70
2022/10/06 08:44:04;;;;;;;6.63;1.13;;;14.10;99.90;;;;;;4972200;28;20570;-70
2022/10/06 08:46:37;;;;;;;4.03;0.85;;;14.20;99.90;;;;;;4974906;28;20117;-70
2022/10/06 08:49:04;;;;;;;6.00;0.70;;;14.30;99.90;;;;;;4974616;28;20105;-69
2022/10/06 08:52:07;;;;;;;7.80;1.45;;;14.40;99.90;;;;;;4974911;28;20034;-71
2022/10/06 08:55:02;;;;;;;7.15;0.60;;;14.50;99.90;;;;;;4972665;28;20066;-71
2022/10/06 08:57:39;;;;;;;8.63;0.50;;;14.50;99.90;;;;;;4980962;28;20038;-71
2022/10/06 09:00:13;;;;;;;7.93;1.05;;;14.60;99.90;;;;;;4973892;28;20039;-70
2022/10/06 09:02:45;;;;;;;5.38;1.08;;;14.70;99.90;;;;;;4978040;28;20048;-70
2022/10/06 09:05:24;;;;;;;5.05;0.85;;;14.70;99.90;;;;;;4970121;28;20043;-70
2022/10/06 09:07:57;;;;;;;7.05;0.75;;;14.90;99.90;;;;;;4973485;28;20045;-69
2022/10/06 09:11:10;;;;;;;7.07;0.60;;;14.90;99.90;;;;;;4977475;28;20061;-70
2022/10/06 09:13:42;;;;;;;4.15;0.82;;;15.00;99.90;;;;;;4975351;28;20626;-70
2022/10/06 09:16:13;;;;;;;9.30;0.80;;;15.10;99.90;;;;;;4975260;28;20395;-70
2022/10/06 09:18:49;;;;;;;4.53;0.85;;;15.20;99.90;;;;;;4976181;28;20031;-69
2022/10/06 09:21:24;;;;;;;3.58;0.73;;;15.40;99.90;;;;;;4973058;28;20072;-70
2022/10/06 09:23:55;;;;;;;6.07;0.60;;;15.50;99.90;;;;;;4972736;28;20085;-71
2022/10/06 09:26:30;;;;;;;5.13;0.80;;;15.70;99.90;;;;;;4973308;28;20686;-70
2022/10/06 09:28:56;;;;;;;8.00;1.20;;;15.80;99.90;;;;;;4974605;28;20121;-71
2022/10/06 09:31:30;;;;;;;6.55;0.90;;;15.90;99.90;;;;;;4977178;28;20058;-70
2022/10/06 09:34:19;;;;;;;5.75;1.10;;;15.90;99.90;;;;;;4977767;28;20053;-71
2022/10/06 09:36:58;;;;;;;5.68;0.95;;;16.00;99.90;;;;;;4974303;28;20034;-71
2022/10/06 09:39:25;;;;;;;9.43;0.82;;;16.00;99.90;;;;;;4974853;28;20062;-70
2022/10/06 09:41:53;;;;;;;8.38;0.82;;;16.20;99.90;;;;;;4969881;28;20077;-70
2022/10/06 09:44:32;;;;;;;3.47;0.60;;;16.40;99.90;;;;;;4973611;28;20041;-71
2022/10/06 09:46:58;;;;;;;13.63;1.67;;;16.40;99.90;;;;;;4975667;28;20034;-69
2022/10/06 09:49:25;;;;;;;5.00;0.93;;;16.60;99.90;;;;;;4974922;28;20039;-70
2022/10/06 09:52:15;;;;;;;8.55;0.43;;;16.70;99.90;;;;;;4978381;28;20043;-70
2022/10/06 09:54:42;;;;;;;3.08;0.45;;;16.70;99.90;;;;;;4975371;28;20042;-72
2022/10/06 09:57:13;;;;;;;4.13;0.40;;;16.90;99.90;;;;;;4974552;28;20030;-71
2022/10/06 09:59:44;;;;;;;5.70;1.02;;;16.80;99.90;;;;;;4973872;28;20510;-71
2022/10/06 10:02:35;;;;;;;4.15;0.35;;;16.90;99.90;;;;;;4973317;28;20096;-69
2022/10/06 10:05:17;;;;;;;4.93;0.47;;;16.70;99.90;;;;;;4966686;28;20116;-70
2022/10/06 10:07:42;;;;;;;5.28;0.55;;;16.70;99.90;;;;;;4971695;28;20039;-70
2022/10/06 10:10:22;;;;;;;3.13;0.30;;;16.60;99.90;;;;;;4975089;28;20046;-70
2022/10/06 10:12:55;;;;;;;3.50;0.38;;;16.60;99.90;;;;;;4977114;28;20506;-71
2022/10/06 10:15:21;;;;;;;6.20;0.32;;;16.60;99.90;;;;;;4972659;28;20538;-70
2022/10/06 10:17:51;;;;;;;2.20;0.35;;;16.60;99.90;;;;;;4967497;28;20035;-71
2022/10/06 10:20:33;;;;;;;2.40;0.40;;;16.60;99.90;;;;;;4967823;28;20402;-70
2022/10/06 10:23:19;;;;;;;3.47;0.50;;;16.50;99.90;;;;;;4969310;28;20145;-70
2022/10/06 10:26:14;;;;;;;4.40;0.75;;;16.40;99.90;;;;;;4970156;28;20061;-70
2022/10/06 10:28:50;;;;;;;3.17;0.47;;;16.40;99.90;;;;;;4968210;28;20038;-69
2022/10/06 10:31:31;;;;;;;0.63;0.15;;;16.50;99.90;;;;;;4970469;28;20122;-69
2022/10/06 10:34:33;;;;;;;5.78;0.47;;;16.50;99.90;;;;;;4972501;28;20478;-69
2022/10/06 10:37:03;;;;;;;2.33;0.38;;;16.50;99.90;;;;;;4968720;28;20392;-70
2022/10/06 10:39:32;;;;;;;1.80;0.35;;;16.50;99.90;;;;;;4967054;28;20525;-70
2022/10/06 10:42:01;;;;;;;4.45;0.45;;;16.60;99.90;;;;;;4970463;28;20066;-72
2022/10/06 10:44:33;;;;;;;7.50;0.68;;;16.60;99.90;;;;;;4973392;28;20049;-69
2022/10/06 10:47:13;;;;;;;9.63;0.88;;;16.70;99.90;;;;;;4971207;28;20033;-73
2022/10/06 10:49:47;;;;;;;5.03;0.30;;;16.70;99.90;;;;;;4969592;28;20077;-69
2022/10/06 10:52:17;;;;;;;2.97;0.30;;;16.70;99.90;;;;;;4969273;28;20047;-69
2022/10/06 10:54:46;;;;;;;;;;;16.70;99.90;;;;;;4975250;28;20047;-69
2022/10/06 10:57:16;;;;;;;4.28;0.55;;;16.70;99.90;;;;;;4968021;28;19953;-71
2022/10/06 11:00:02;;;;;;;5.45;0.95;;;16.70;99.90;;;;;;4970883;28;20697;-68
2022/10/06 11:02:29;;;;;;;2.08;0.40;;;16.60;99.90;;;;;;4968231;28;20039;-70
2022/10/06 11:05:04;;;;;;;4.50;0.35;;;16.60;99.90;;;;;;4974218;28;20035;-69
2022/10/06 11:07:53;;;;;;;4.60;0.63;;;16.50;99.90;;;;;;4972607;28;20429;-69
2022/10/06 11:10:24;;;;;;;6.68;0.88;;;16.40;99.90;;;;;;4970050;28;20105;-71
2022/10/06 11:13:40;;;;;;;6.47;0.50;;;16.30;99.90;;;;;;4966567;28;20046;-70
2022/10/06 11:16:05;;;;;;;6.05;0.35;;;16.40;99.90;;;;;;4950660;28;20174;-71
2022/10/06 11:19:06;;;;;;;4.93;0.55;;;16.50;99.90;;;;;;4978511;28;20130;-71
2022/10/06 11:21:53;;;;;;;3.95;0.73;;;16.60;99.90;;;;;;4970515;28;20034;-69
2022/10/06 11:24:25;;;;;;;5.18;0.40;;;16.60;99.90;;;;;;4975947;28;20100;-71
2022/10/06 11:27:05;;;;;;;1.48;0.40;;;16.60;99.90;;;;;;4969578;28;20482;-70
2022/10/06 11:30:06;;;;;;;2.85;0.32;;;16.70;99.90;;;;;;4968986;28;20446;-69
2022/10/06 11:32:37;;;;;;;4.57;0.55;;;16.60;99.90;;;;;;4968564;28;20568;-69
2022/10/06 11:35:17;;;;;;;3.55;0.75;;;16.70;99.90;;;;;;4966554;28;20042;-71
2022/10/06 11:37:55;;;;;;;3.08;0.25;;;16.70;99.90;;;;;;4966910;28;20334;-70
2022/10/06 11:40:27;;;;;;;3.70;0.40;;;16.60;99.90;;;;;;4967144;28;20131;-70
2022/10/06 11:43:16;;;;;;;2.67;0.35;;;16.60;99.90;;;;;;4969478;28;20038;-70
2022/10/06 11:45:58;;;;;;;3.50;0.60;;;16.60;99.90;;;;;;4970792;28;20035;-70
2022/10/06 11:48:29;;;;;;;4.55;0.25;;;16.50;99.90;;;;;;4971753;28;20034;-69
2022/10/06 11:51:16;;;;;;;4.20;0.22;;;16.60;99.90;;;;;;4970485;28;20174;-69
2022/10/06 11:53:45;;;;;;;3.88;0.30;;;16.70;99.90;;;;;;4965913;28;20093;-70
2022/10/06 11:56:38;;;;;;;5.57;0.50;;;16.70;99.90;;;;;;4973077;28;20093;-70
2022/10/06 11:59:11;;;;;;;3.17;0.30;;;16.50;99.90;;;;;;4963749;28;20027;-69
2022/10/06 12:01:37;;;;;;;4.72;0.52;;;16.40;99.90;;;;;;4969593;28;20460;-69
2022/10/06 12:04:06;;;;;;;3.55;0.75;;;16.30;99.90;;;;;;4969937;28;20042;-71
2022/10/06 12:06:44;;;;;;;4.80;0.60;;;16.30;99.90;;;;;;4974389;28;20030;-68
2022/10/06 12:09:29;;;;;;;4.65;0.30;;;16.30;99.90;;;;;;4976828;28;20039;-69
2022/10/06 12:11:57;;;;;;;2.80;0.50;;;16.40;99.90;;;;;;4975698;28;20570;-70
2022/10/06 12:14:35;;;;;;;3.72;0.40;;;16.50;99.90;;;;;;4984757;28;20042;-70
2022/10/06 12:17:21;;;;;;;5.80;0.30;;;16.60;99.90;;;;;;4968364;28;20033;-69
2022/10/06 12:20:03;;;;;;;2.78;0.30;;;16.50;99.90;;;;;;4972049;28;20054;-71
2022/10/06 12:22:58;;;;;;;1.42;0.22;;;16.50;99.90;;;;;;4974339;28;20038;-70
2022/10/06 12:25:37;;;;;;;5.50;0.60;;;16.60;99.90;;;;;;4962449;28;20407;-71
2022/10/06 12:28:17;;;;;;;1.13;0.25;;;16.60;99.90;;;;;;4974065;28;20499;-69
2022/10/06 12:30:49;;;;;;;1.83;0.20;;;16.60;99.90;;;;;;4977737;28;20042;-70
2022/10/06 12:33:19;;;;;;;0.80;0.20;;;16.50;99.90;;;;;;4973904;28;20086;-70
2022/10/06 12:35:45;;;;;;;1.65;0.20;;;16.50;99.90;;;;;;4971111;28;20038;-71
2022/10/06 12:38:29;;;;;;;5.25;0.40;;;16.40;99.90;;;;;;4969500;28;20447;-70
2022/10/06 12:40:55;;;;;;;7.80;0.52;;;16.40;99.90;;;;;;4973160;28;20058;-70
2022/10/06 12:43:21;;;;;;;2.67;0.55;;;16.40;99.90;;;;;;4973257;28;20027;-70
2022/10/06 12:45:58;;;;;;;8.90;0.65;;;16.40;99.90;;;;;;4972735;28;20384;-70
2022/10/06 12:48:30;;;;;;;2.65;0.80;;;16.40;99.90;;;;;;4973772;28;20046;-70
2022/10/06 12:51:07;;;;;;;5.80;0.45;;;16.40;99.90;;;;;;4975364;28;20070;-70
2022/10/06 12:53:44;;;;;;;13.52;1.35;;;16.60;99.90;;;;;;4987465;28;20033;-72
2022/10/06 12:56:31;;;;;;;3.83;0.30;;;16.50;99.90;;;;;;4968862;28;20042;-69
2022/10/06 12:58:57;;;;;;;3.50;0.70;;;16.60;99.90;;;;;;4971298;28;20030;-70
2022/10/06 13:01:24;;;;;;;2.22;0.50;;;16.60;99.90;;;;;;4974324;28;20026;-70
2022/10/06 13:03:51;;;;;;;2.97;0.38;;;16.70;99.90;;;;;;4973430;28;20027;-71
2022/10/06 13:06:22;;;;;;;3.80;0.85;;;16.60;99.90;;;;;;4973625;28;20035;-70
2022/10/06 13:09:12;;;;;;;3.55;0.40;;;16.60;99.90;;;;;;4973763;28;20022;-71
2022/10/06 13:11:38;;;;;;;2.50;0.40;;;16.70;99.90;;;;;;4977839;28;20057;-69
2022/10/06 13:14:11;;;;;;;1.77;0.25;;;16.70;99.90;;;;;;4967880;28;20035;-68
2022/10/06 13:16:47;;;;;;;6.80;0.60;;;16.70;99.90;;;;;;4968363;28;20058;-71